createdAt,value
2023-04-02T00:01:47.302Z,7.09
2023-04-02T00:07:16.640Z,7.05
2023-04-02T00:12:19.760Z,7.10
2023-04-02T00:17:25.004Z,7.06
2023-04-02T00:22:29.993Z,6.95
2023-04-02T00:27:32.473Z,6.89
2023-04-02T00:32:38.824Z,6.89
2023-04-02T00:37:42.216Z,6.87
2023-04-02T00:42:44.833Z,6.81
2023-04-02T00:47:46.596Z,6.85
2023-04-02T00:52:54.429Z,6.88
2023-04-02T00:57:57.933Z,6.86
2023-04-02T01:03:17.823Z,6.82
2023-04-02T01:08:37.918Z,6.80
2023-04-02T01:13:54.755Z,6.76
2023-04-02T01:19:08.799Z,6.68
2023-04-02T01:24:14.668Z,6.71
2023-04-02T01:29:27.609Z,6.70
2023-04-02T01:34:30.886Z,6.65
2023-04-02T01:39:44.648Z,6.69
2023-04-02T01:44:59.785Z,6.62
2023-04-02T01:50:16.656Z,6.59
2023-04-02T01:55:47.106Z,6.51
2023-04-02T02:00:57.018Z,6.52
2023-04-02T02:05:59.648Z,6.53
2023-04-02T02:11:02.594Z,6.49
2023-04-02T02:16:05.310Z,6.42
2023-04-02T02:21:10.630Z,6.40
2023-04-02T02:26:14.488Z,6.37
2023-04-02T02:31:22.893Z,6.35
2023-04-02T02:36:28.710Z,6.37
2023-04-02T02:41:44.959Z,6.31
2023-04-02T02:46:54.229Z,6.23
2023-04-02T02:52:01.805Z,6.20
2023-04-02T02:57:11.616Z,6.14
2023-04-02T03:02:14.882Z,6.18
2023-04-02T03:07:19.328Z,6.21
2023-04-02T03:12:34.906Z,6.13
2023-04-02T03:17:45.945Z,6.08
2023-04-02T03:22:56.237Z,6.08
2023-04-02T03:28:06.274Z,6.01
2023-04-02T03:33:34.146Z,5.98
2023-04-02T03:38:44.172Z,5.96
2023-04-02T03:43:49.221Z,6.01
2023-04-02T03:49:06.264Z,6.09
2023-04-02T03:54:15.618Z,6.03
2023-04-02T03:59:42.808Z,5.87
2023-04-02T04:04:46.962Z,5.83
2023-04-02T04:09:52.614Z,5.80
2023-04-02T04:15:22.605Z,5.78
2023-04-02T04:20:29.496Z,5.79
2023-04-02T04:25:34.354Z,5.81
2023-04-02T04:31:00.236Z,5.84
2023-04-02T04:36:03.842Z,5.82
2023-04-02T04:41:24.518Z,5.83
2023-04-02T04:46:33.061Z,5.77
2023-04-02T04:51:42.439Z,5.71
2023-04-02T04:56:55.736Z,5.71
2023-04-02T05:02:07.769Z,5.78
2023-04-02T05:07:18.539Z,5.73
2023-04-02T05:12:35.381Z,5.61
2023-04-02T05:17:51.387Z,5.58
2023-04-02T05:23:12.436Z,5.59
2023-04-02T05:28:29.921Z,5.53
2023-04-02T05:33:34.157Z,5.50
2023-04-02T05:38:38.178Z,5.44
2023-04-02T05:43:46.229Z,5.47
2023-04-02T05:48:52.108Z,5.43
2023-04-02T05:54:01.434Z,5.39
2023-04-02T05:59:29.856Z,5.34
2023-04-02T06:04:44.967Z,5.25
2023-04-02T06:09:57.079Z,5.30
2023-04-02T06:14:59.118Z,5.24
2023-04-02T06:20:04.122Z,5.13
2023-04-02T06:25:15.873Z,5.15
2023-04-02T06:30:25.421Z,5.12
2023-04-02T06:35:28.085Z,5.03
2023-04-02T06:40:33.635Z,4.97
2023-04-02T06:45:42.173Z,4.99
2023-04-02T06:50:51.198Z,5.01
2023-04-02T06:56:22.352Z,5.09
2023-04-02T07:01:33.888Z,5.11
2023-04-02T07:06:35.571Z,5.10
2023-04-02T07:11:37.245Z,5.13
2023-04-02T07:16:41.457Z,5.05
2023-04-02T07:21:42.954Z,4.89
2023-04-02T07:26:44.556Z,4.80
2023-04-02T07:31:46.387Z,4.70
2023-04-02T07:36:49.262Z,4.78
2023-04-02T07:41:56.423Z,4.85
2023-04-02T07:46:58.209Z,4.80
2023-04-02T07:51:59.798Z,4.91
2023-04-02T07:57:01.997Z,4.85
2023-04-02T08:02:04.514Z,4.96
2023-04-02T08:07:06.453Z,5.13
2023-04-02T08:12:08.036Z,5.11
2023-04-02T08:17:09.593Z,5.20
2023-04-02T08:22:11.798Z,5.11
2023-04-02T08:27:15.191Z,4.97
2023-04-02T08:32:17.374Z,4.97
2023-04-02T08:37:18.868Z,4.93
2023-04-02T08:42:29.634Z,4.89
2023-04-02T08:47:32.690Z,4.83
2023-04-02T08:52:37.544Z,4.75
2023-04-02T08:57:52.236Z,4.96
2023-04-02T09:03:03.606Z,5.01
2023-04-02T09:08:15.444Z,4.97
2023-04-02T09:13:24.231Z,5.03
2023-04-02T09:18:30.752Z,4.99
2023-04-02T09:23:32.315Z,4.98
2023-04-02T09:28:33.840Z,5.13
2023-04-02T09:33:47.512Z,5.21
2023-04-02T09:39:19.944Z,5.36
2023-04-02T09:44:27.449Z,5.54
2023-04-02T09:49:40.087Z,5.57
2023-04-02T09:54:41.734Z,5.42
2023-04-02T09:59:43.407Z,5.25
2023-04-02T10:04:48.440Z,5.19
2023-04-02T10:10:02.285Z,5.26
2023-04-02T10:15:06.122Z,5.45
2023-04-02T10:20:26.271Z,5.35
2023-04-02T10:25:36.209Z,5.17
2023-04-02T10:31:05.151Z,5.13
2023-04-02T10:36:30.399Z,5.14
2023-04-02T10:41:57.465Z,5.18
2023-04-02T10:47:13.152Z,5.09
2023-04-02T10:52:24.409Z,5.09
2023-04-02T10:57:41.281Z,5.16
2023-04-02T11:03:09.507Z,5.20
2023-04-02T11:08:20.013Z,5.17
2023-04-02T11:13:26.744Z,5.10
2023-04-02T11:18:37.506Z,5.18
2023-04-02T11:23:55.694Z,5.19
2023-04-02T11:29:21.562Z,5.18
2023-04-02T11:34:41.389Z,5.12
2023-04-02T11:39:57.014Z,5.05
2023-04-02T11:45:01.995Z,5.04
2023-04-02T11:50:05.011Z,5.03
2023-04-02T11:55:24.456Z,4.89
2023-04-02T12:00:49.585Z,4.89
2023-04-02T12:06:25.741Z,4.77
2023-04-02T12:11:32.898Z,4.66
2023-04-02T12:16:36.131Z,4.60
2023-04-02T12:21:37.981Z,4.45
2023-04-02T12:26:42.368Z,4.44
2023-04-02T12:31:46.594Z,4.57
2023-04-02T12:36:59.603Z,4.72
2023-04-02T12:42:01.688Z,4.86
2023-04-02T12:47:04.669Z,4.80
2023-04-02T12:52:19.397Z,4.70
2023-04-02T12:57:26.940Z,4.66
2023-04-02T13:02:32.224Z,4.53
2023-04-02T13:07:34.010Z,4.47
2023-04-02T13:12:38.316Z,4.43
2023-04-02T13:17:47.946Z,4.63
2023-04-02T13:22:49.650Z,4.83
2023-04-02T13:27:51.309Z,4.83
2023-04-02T13:32:53.130Z,4.86
2023-04-02T13:37:54.787Z,4.74
2023-04-02T13:42:56.546Z,4.72
2023-04-02T13:48:01.338Z,4.67
2023-04-02T13:53:10.620Z,4.57
2023-04-02T13:58:12.396Z,4.59
2023-04-02T14:03:19.187Z,4.77
2023-04-02T14:08:26.910Z,4.72
2023-04-02T14:13:49.841Z,4.73
2023-04-02T14:19:13.930Z,4.65
2023-04-02T14:24:33.825Z,4.57
2023-04-02T14:29:46.829Z,4.56
2023-04-02T14:35:00.622Z,4.50
2023-04-02T14:40:17.536Z,4.45
2023-04-02T14:45:42.806Z,4.46
2023-04-02T14:50:44.486Z,4.33
2023-04-02T14:55:49.930Z,4.34
2023-04-02T15:00:57.593Z,4.25
2023-04-02T15:06:03.524Z,4.30
2023-04-02T15:11:16.457Z,4.30
2023-04-02T15:16:21.440Z,4.39
2023-04-02T15:21:23.266Z,4.37
2023-04-02T15:26:51.861Z,4.32
2023-04-02T15:32:05.350Z,4.14
2023-04-02T15:37:16.382Z,4.11
2023-04-02T15:42:27.883Z,4.15
2023-04-02T15:48:12.330Z,4.14
2023-04-02T15:53:31.198Z,4.00
2023-04-02T15:59:03.963Z,3.93
2023-04-02T16:04:21.538Z,3.89
2023-04-02T16:10:07.025Z,3.79
2023-04-02T16:15:16.501Z,3.69
2023-04-02T16:20:27.472Z,3.59
2023-04-02T16:25:36.128Z,3.51
2023-04-02T16:31:01.671Z,3.41
2023-04-02T16:36:22.464Z,3.35
2023-04-02T16:41:50.698Z,3.33
2023-04-02T16:46:52.358Z,3.28
2023-04-02T16:52:29.216Z,3.29
2023-04-02T16:57:42.896Z,3.23
2023-04-02T17:03:09.060Z,3.23
2023-04-02T17:08:30.549Z,3.21
2023-04-02T17:13:50.461Z,3.18
2023-04-02T17:18:55.488Z,3.17
2023-04-02T17:23:58.580Z,3.12
2023-04-02T17:29:08.463Z,3.13
2023-04-02T17:34:13.993Z,3.13
2023-04-02T17:39:39.590Z,3.02
2023-04-02T17:45:07.129Z,2.96
2023-04-02T17:50:44.316Z,2.89
2023-04-02T17:56:17.510Z,2.87
2023-04-02T18:01:28.505Z,2.87
2023-04-02T18:06:36.084Z,2.87
2023-04-02T18:11:50.629Z,2.85
2023-04-02T18:17:43.134Z,2.81
2023-04-02T18:23:02.795Z,2.82
2023-04-02T18:28:30.446Z,2.81
2023-04-02T18:33:34.872Z,2.88
2023-04-02T18:39:17.523Z,2.84
2023-04-02T18:45:20.436Z,2.81
2023-04-02T18:50:32.649Z,2.85
2023-04-02T18:55:34.505Z,2.93
2023-04-02T19:00:40.094Z,2.97
2023-04-02T19:05:49.560Z,2.97
2023-04-02T19:10:57.851Z,2.92
2023-04-02T19:16:17.646Z,2.95
2023-04-02T19:21:44.777Z,2.95
2023-04-02T19:27:25.713Z,2.92
2023-04-02T19:32:36.181Z,2.94
2023-04-02T19:37:43.467Z,2.91
2023-04-02T19:42:51.343Z,2.90
2023-04-02T19:47:53.625Z,2.94
2023-04-02T19:52:55.184Z,2.94
2023-04-02T19:58:08.511Z,2.96
2023-04-02T20:03:18.212Z,3.03
2023-04-02T20:08:19.944Z,3.01
2023-04-02T20:13:21.637Z,3.00
2023-04-02T20:18:23.197Z,3.01
2023-04-02T20:23:25.051Z,2.99
2023-04-02T20:28:27.726Z,3.00
2023-04-02T20:33:29.329Z,3.05
2023-04-02T20:38:32.180Z,3.04
2023-04-02T20:43:34.418Z,3.03
2023-04-02T20:48:36.580Z,3.05
2023-04-02T20:53:38.534Z,3.02
2023-04-02T20:58:41.779Z,3.09
2023-04-02T21:03:43.736Z,3.02
2023-04-02T21:08:45.425Z,2.98
2023-04-02T21:13:47.007Z,2.98
2023-04-02T21:18:50.925Z,2.97
2023-04-02T21:24:01.088Z,3.05
2023-04-02T21:29:03.786Z,3.07
2023-04-02T21:34:06.837Z,3.08
2023-04-02T21:39:27.273Z,3.15
2023-04-02T21:44:28.998Z,3.19
2023-04-02T21:49:30.627Z,3.20
2023-04-02T21:54:32.322Z,3.23
2023-04-02T21:59:33.846Z,3.30
2023-04-02T22:04:35.400Z,3.29
2023-04-02T22:09:36.950Z,3.23
2023-04-02T22:14:38.445Z,3.23
2023-04-02T22:19:39.956Z,3.23
2023-04-02T22:24:41.456Z,3.17
2023-04-02T22:29:42.968Z,3.12
2023-04-02T22:34:45.759Z,3.05
2023-04-02T22:39:47.387Z,2.97
2023-04-02T22:44:48.939Z,2.99
2023-04-02T22:49:50.687Z,2.97
2023-04-02T22:54:52.216Z,2.88
2023-04-02T22:59:53.752Z,2.84
2023-04-02T23:04:55.435Z,2.78
2023-04-02T23:09:57.427Z,2.75
2023-04-02T23:14:59.748Z,2.68
2023-04-02T23:20:01.392Z,2.61
2023-04-02T23:25:04.413Z,2.53
2023-04-02T23:30:07.116Z,2.48
2023-04-02T23:35:09.683Z,2.43
2023-04-02T23:40:11.579Z,2.38
2023-04-02T23:45:13.060Z,2.31
2023-04-02T23:50:14.823Z,2.26
2023-04-02T23:55:16.352Z,2.19
